createdAt,value
2019-01-23T00:00:45.181Z,17.73
2019-01-23T00:07:29.400Z,18.20
2019-01-23T00:14:13.581Z,18.97
2019-01-23T00:20:57.773Z,17.57
2019-01-23T00:27:42.106Z,19.17
2019-01-23T00:34:26.325Z,18.03
2019-01-23T00:41:10.514Z,18.07
2019-01-23T00:47:54.916Z,18.33
2019-01-23T00:54:39.198Z,16.90
2019-01-23T01:01:23.506Z,19.17
2019-01-23T01:08:07.747Z,17.50
2019-01-23T01:14:52.039Z,18.00
2019-01-23T01:21:36.240Z,17.20
2019-01-23T01:28:23.474Z,17.13
2019-01-23T01:35:07.751Z,17.20
2019-01-23T01:41:52.082Z,18.20
2019-01-23T01:48:36.274Z,17.87
2019-01-23T01:55:20.476Z,18.30
2019-01-23T02:02:07.534Z,16.97
2019-01-23T02:08:51.842Z,16.57
2019-01-23T02:15:36.054Z,17.37
2019-01-23T02:22:21.489Z,17.30
2019-01-23T02:29:13.154Z,18.93
2019-01-23T02:35:57.334Z,18.30
2019-01-23T02:42:41.522Z,17.47
2019-01-23T02:49:25.743Z,19.33
2019-01-23T03:03:37.229Z,17.90
2019-01-23T03:10:22.547Z,18.57
2019-01-23T03:17:06.819Z,20.13
2019-01-23T03:23:51.025Z,19.60
2019-01-23T03:30:35.212Z,20.17
2019-01-23T03:37:19.389Z,20.77
2019-01-23T03:44:04.051Z,20.50
2019-01-23T03:50:48.287Z,21.20
2019-01-23T03:57:32.477Z,21.97
2019-01-23T04:04:16.757Z,22.30
2019-01-23T04:11:00.930Z,19.87
2019-01-23T04:17:45.131Z,21.77
2019-01-23T04:24:29.332Z,20.80
2019-01-23T04:31:13.539Z,20.70
2019-01-23T04:37:57.726Z,21.30
2019-01-23T04:44:41.915Z,19.97
2019-01-23T04:51:37.223Z,22.63
2019-01-23T04:58:21.727Z,20.57
2019-01-23T05:05:06.814Z,22.77
2019-01-23T05:11:51.011Z,21.93
2019-01-23T05:18:36.202Z,21.73
2019-01-23T05:25:21.928Z,20.97
2019-01-23T05:32:08.700Z,20.87
2019-01-23T05:38:52.882Z,21.93
2019-01-23T05:45:37.092Z,21.07
2019-01-23T05:52:21.361Z,22.17
2019-01-23T05:59:05.569Z,22.60
2019-01-23T06:05:49.830Z,20.33
2019-01-23T06:12:34.086Z,20.77
2019-01-23T06:19:18.272Z,21.63
2019-01-23T06:26:02.554Z,23.03
2019-01-23T06:32:52.116Z,22.43
2019-01-23T06:39:36.294Z,21.13
2019-01-23T06:46:20.577Z,21.57
2019-01-23T06:53:04.802Z,23.03
2019-01-23T06:59:49.022Z,23.80
2019-01-23T07:06:33.365Z,21.53
2019-01-23T07:13:18.366Z,22.30
2019-01-23T07:20:02.557Z,21.27
2019-01-23T07:26:46.785Z,22.20
2019-01-23T07:33:31.005Z,23.80
2019-01-23T07:40:15.186Z,22.00
2019-01-23T07:46:59.382Z,23.70
2019-01-23T07:53:43.567Z,23.43
2019-01-23T08:00:31.473Z,22.70
2019-01-23T08:07:12.125Z,22.57
2019-01-23T08:13:56.378Z,22.40
2019-01-23T08:20:40.526Z,23.20
2019-01-23T08:27:24.922Z,26.00
2019-01-23T08:34:09.113Z,23.90
2019-01-23T08:40:53.310Z,24.70
2019-01-23T08:47:37.743Z,24.03
2019-01-23T08:54:21.934Z,26.47
2019-01-23T09:01:06.502Z,24.03
2019-01-23T09:07:50.681Z,24.60
2019-01-23T09:14:34.893Z,23.50
2019-01-23T09:21:19.114Z,24.67
2019-01-23T09:28:03.310Z,25.30
2019-01-23T09:35:03.127Z,24.63
2019-01-23T09:42:13.821Z,26.57
2019-01-23T09:49:13.548Z,25.03
2019-01-23T09:55:58.080Z,24.80
2019-01-23T10:02:42.302Z,26.60
2019-01-23T10:09:26.530Z,25.90
2019-01-23T10:16:19.579Z,27.63
2019-01-23T10:23:03.779Z,25.20
2019-01-23T10:29:47.978Z,26.47
2019-01-23T10:36:32.246Z,26.37
2019-01-23T10:43:16.684Z,27.03
2019-01-23T10:50:00.969Z,27.33
2019-01-23T10:56:45.161Z,26.20
2019-01-23T11:03:29.359Z,27.53
2019-01-23T11:10:15.894Z,25.60
2019-01-23T11:17:00.110Z,22.60
2019-01-23T11:23:44.312Z,25.00
2019-01-23T11:30:28.542Z,24.67
2019-01-23T11:37:12.782Z,23.43
2019-01-23T11:43:56.978Z,25.13
2019-01-23T11:50:52.552Z,25.67
2019-01-23T11:57:38.996Z,23.17
2019-01-23T12:04:31.193Z,20.80
2019-01-23T12:26:23.122Z,23.17
2019-01-23T12:33:14.617Z,14.60
2019-01-23T12:39:58.833Z,20.23
2019-01-23T12:46:43.047Z,19.10
2019-01-23T12:53:27.233Z,16.13
2019-01-23T13:00:17.801Z,16.70
2019-01-23T13:07:01.991Z,17.67
2019-01-23T13:13:46.202Z,22.50
2019-01-23T13:20:30.398Z,21.77
2019-01-23T13:27:14.577Z,17.70
2019-01-23T13:33:58.770Z,21.37
2019-01-23T13:40:42.972Z,19.47
2019-01-23T13:47:27.153Z,22.97
2019-01-23T13:54:11.381Z,21.93
2019-01-23T14:00:55.561Z,10.03
2019-01-23T14:07:39.755Z,16.70
2019-01-23T14:14:24.172Z,17.53
2019-01-23T14:21:08.546Z,18.70
2019-01-23T14:27:52.739Z,19.00
2019-01-23T14:34:36.926Z,18.80
2019-01-23T14:41:21.204Z,20.67
2019-01-23T14:48:05.902Z,20.03
2019-01-23T14:54:50.121Z,19.90
2019-01-23T15:01:34.314Z,19.37
2019-01-23T15:08:18.491Z,22.23
2019-01-23T15:15:02.687Z,20.63
2019-01-23T15:21:46.873Z,18.10
2019-01-23T15:28:31.070Z,19.47
2019-01-23T15:35:15.386Z,20.00
2019-01-23T15:41:59.599Z,19.93
2019-01-23T15:48:45.177Z,21.33
2019-01-23T15:55:31.565Z,18.30
2019-01-23T16:02:15.738Z,22.10
2019-01-23T16:08:59.934Z,21.00
2019-01-23T16:15:44.135Z,25.80
2019-01-23T16:22:28.839Z,23.07
2019-01-23T16:29:13.839Z,21.67
2019-01-23T16:35:57.262Z,21.77
2019-01-23T16:42:42.834Z,23.93
2019-01-23T16:49:36.621Z,22.43
2019-01-23T16:56:20.881Z,22.20
2019-01-23T17:03:11.183Z,23.97
2019-01-23T17:09:56.151Z,22.03
2019-01-23T17:16:40.405Z,22.50
2019-01-23T17:23:24.632Z,26.10
2019-01-23T17:30:10.054Z,25.23
2019-01-23T17:36:54.239Z,21.37
2019-01-23T17:43:38.973Z,22.30
2019-01-23T17:50:23.245Z,26.60
2019-01-23T17:57:07.450Z,26.90
2019-01-23T18:03:51.752Z,22.73
2019-01-23T18:10:36.174Z,27.77
2019-01-23T18:17:20.362Z,27.23
2019-01-23T18:24:04.765Z,23.47
2019-01-23T18:30:56.097Z,22.33
2019-01-23T18:37:52.058Z,23.17
2019-01-23T18:44:50.302Z,17.03
2019-01-23T18:51:41.918Z,23.00
2019-01-23T18:58:26.109Z,24.27
2019-01-23T19:05:10.362Z,22.10
2019-01-23T19:11:54.634Z,19.90
2019-01-23T19:18:38.958Z,16.47
2019-01-23T19:25:23.432Z,24.10
2019-01-23T19:32:08.245Z,26.43
2019-01-23T19:38:52.849Z,24.77
2019-01-23T19:45:37.038Z,24.10
2019-01-23T19:52:21.225Z,26.03
2019-01-23T19:59:07.470Z,27.13
2019-01-23T20:05:52.633Z,24.87
2019-01-23T20:12:37.616Z,23.93
2019-01-23T20:19:25.229Z,24.33
2019-01-23T20:26:10.215Z,20.80
2019-01-23T20:32:55.049Z,23.03
2019-01-23T20:39:39.234Z,23.80
2019-01-23T20:46:23.442Z,27.97
2019-01-23T20:53:07.662Z,24.80
2019-01-23T20:59:51.887Z,30.07
2019-01-23T21:06:36.079Z,25.40
2019-01-23T21:13:20.325Z,28.42
2019-01-23T21:20:04.593Z,25.63
2019-01-23T21:26:48.937Z,29.53
2019-01-23T21:33:33.176Z,25.70
2019-01-23T21:40:19.582Z,27.93
2019-01-23T21:47:04.455Z,29.23
2019-01-23T21:53:48.662Z,30.10
2019-01-23T22:00:36.562Z,29.07
2019-01-23T22:07:21.782Z,30.37
2019-01-23T22:14:07.382Z,32.17
2019-01-23T22:20:52.086Z,31.40
2019-01-23T22:27:36.296Z,30.40
2019-01-23T22:34:20.673Z,31.73
2019-01-23T22:41:05.288Z,27.53
2019-01-23T22:47:49.478Z,29.77
2019-01-23T22:54:35.452Z,30.10
2019-01-23T23:01:27.105Z,29.43
2019-01-23T23:08:11.645Z,29.00
2019-01-23T23:14:57.670Z,32.47
2019-01-23T23:21:42.415Z,32.93
2019-01-23T23:28:26.695Z,31.47
2019-01-23T23:35:11.354Z,33.17
2019-01-23T23:41:56.225Z,34.53
2019-01-23T23:48:41.189Z,32.57
2019-01-23T23:55:25.967Z,29.03
